sensor_id;sensor_type;location;lat;lon;timestamp;temperature;humidity
47754;DHT22;2038;51.728;6.674;2023-03-01T00:01:35;-0.20;99.90
47754;DHT22;2038;51.728;6.674;2023-03-01T00:04:02;-0.60;99.90
47754;DHT22;2038;51.728;6.674;2023-03-01T00:06:28;-0.30;99.90
47754;DHT22;2038;51.728;6.674;2023-03-01T00:08:54;0.10;99.90
47754;DHT22;2038;51.728;6.674;2023-03-01T00:11:22;-0.30;99.90
47754;DHT22;2038;51.728;6.674;2023-03-01T00:13:57;-0.20;99.90
47754;DHT22;2038;51.728;6.674;2023-03-01T00:16:29;0.30;99.90
47754;DHT22;2038;51.728;6.674;2023-03-01T00:19:14;-0.30;99.90
47754;DHT22;2038;51.728;6.674;2023-03-01T00:21:43;-0.30;99.90
47754;DHT22;2038;51.728;6.674;2023-03-01T00:24:09;-0.60;99.90
47754;DHT22;2038;51.728;6.674;2023-03-01T00:26:36;-0.60;99.90
47754;DHT22;2038;51.728;6.674;2023-03-01T00:29:03;-0.60;99.90
47754;DHT22;2038;51.728;6.674;2023-03-01T00:31:30;0.10;99.90
47754;DHT22;2038;51.728;6.674;2023-03-01T00:34:00;0.20;99.90
47754;DHT22;2038;51.728;6.674;2023-03-01T00:36:32;-0.50;99.90
47754;DHT22;2038;51.728;6.674;2023-03-01T00:39:04;0.50;99.90
47754;DHT22;2038;51.728;6.674;2023-03-01T00:41:36;-0.40;99.90
47754;DHT22;2038;51.728;6.674;2023-03-01T00:44:02;-0.60;99.90
47754;DHT22;2038;51.728;6.674;2023-03-01T00:46:28;-0.10;99.90
47754;DHT22;2038;51.728;6.674;2023-03-01T00:48:55;0.60;99.90
47754;DHT22;2038;51.728;6.674;2023-03-01T00:51:24;-0.60;99.90
47754;DHT22;2038;51.728;6.674;2023-03-01T00:53:55;-0.50;99.90
47754;DHT22;2038;51.728;6.674;2023-03-01T00:56:25;0.60;99.90
47754;DHT22;2038;51.728;6.674;2023-03-01T00:58:52;-0.10;99.90
47754;DHT22;2038;51.728;6.674;2023-03-01T01:01:21;-0.70;99.90
47754;DHT22;2038;51.728;6.674;2023-03-01T01:04:08;-0.50;99.90
47754;DHT22;2038;51.728;6.674;2023-03-01T01:06:43;0.50;99.90
47754;DHT22;2038;51.728;6.674;2023-03-01T01:09:15;-0.50;99.90
47754;DHT22;2038;51.728;6.674;2023-03-01T01:11:43;-0.40;99.90
47754;DHT22;2038;51.728;6.674;2023-03-01T01:14:12;0.40;99.90
47754;DHT22;2038;51.728;6.674;2023-03-01T01:16:38;-0.80;99.90
47754;DHT22;2038;51.728;6.674;2023-03-01T01:19:04;-0.30;99.90
47754;DHT22;2038;51.728;6.674;2023-03-01T01:21:32;-0.30;99.90
47754;DHT22;2038;51.728;6.674;2023-03-01T01:23:58;0.20;99.90
47754;DHT22;2038;51.728;6.674;2023-03-01T01:26:27;-0.50;99.90
47754;DHT22;2038;51.728;6.674;2023-03-01T01:28:56;0.10;99.90
47754;DHT22;2038;51.728;6.674;2023-03-01T01:31:23;0.10;99.90
47754;DHT22;2038;51.728;6.674;2023-03-01T01:33:51;-0.60;99.90
47754;DHT22;2038;51.728;6.674;2023-03-01T01:36:18;-0.60;99.90
47754;DHT22;2038;51.728;6.674;2023-03-01T01:38:45;0.60;99.90
47754;DHT22;2038;51.728;6.674;2023-03-01T01:41:12;0.50;99.90
47754;DHT22;2038;51.728;6.674;2023-03-01T01:43:45;-0.60;99.90
47754;DHT22;2038;51.728;6.674;2023-03-01T01:46:32;-0.50;99.90
47754;DHT22;2038;51.728;6.674;2023-03-01T01:57:53;-1.00;99.90
47754;DHT22;2038;51.728;6.674;2023-03-01T02:00:28;-1.00;99.90
47754;DHT22;2038;51.728;6.674;2023-03-01T02:02:59;-0.80;99.90
47754;DHT22;2038;51.728;6.674;2023-03-01T02:05:56;-1.00;99.90
47754;DHT22;2038;51.728;6.674;2023-03-01T02:08:35;-0.90;99.90
47754;DHT22;2038;51.728;6.674;2023-03-01T02:11:05;-0.40;99.90
47754;DHT22;2038;51.728;6.674;2023-03-01T02:13:33;-1.10;99.90
47754;DHT22;2038;51.728;6.674;2023-03-01T02:16:13;-1.20;99.90
47754;DHT22;2038;51.728;6.674;2023-03-01T02:18:42;-0.90;99.90
47754;DHT22;2038;51.728;6.674;2023-03-01T02:21:30;-0.90;99.90
47754;DHT22;2038;51.728;6.674;2023-03-01T02:24:48;-1.20;99.90
47754;DHT22;2038;51.728;6.674;2023-03-01T02:27:45;-1.20;99.90
47754;DHT22;2038;51.728;6.674;2023-03-01T02:30:21;-0.50;99.90
47754;DHT22;2038;51.728;6.674;2023-03-01T02:32:52;-1.20;99.90
47754;DHT22;2038;51.728;6.674;2023-03-01T02:35:29;-1.30;99.90
47754;DHT22;2038;51.728;6.674;2023-03-01T02:38:06;-0.40;99.90
47754;DHT22;2038;51.728;6.674;2023-03-01T02:40:35;-1.20;99.90
47754;DHT22;2038;51.728;6.674;2023-03-01T02:43:09;-1.30;99.90
47754;DHT22;2038;51.728;6.674;2023-03-01T02:45:37;-1.50;99.90
47754;DHT22;2038;51.728;6.674;2023-03-01T02:48:14;-1.30;99.90
47754;DHT22;2038;51.728;6.674;2023-03-01T02:51:01;-1.30;99.90
47754;DHT22;2038;51.728;6.674;2023-03-01T02:56:38;-1.20;99.90
47754;DHT22;2038;51.728;6.674;2023-03-01T02:59:04;-1.30;99.90
47754;DHT22;2038;51.728;6.674;2023-03-01T03:04:09;-1.50;99.90
47754;DHT22;2038;51.728;6.674;2023-03-01T03:06:44;-1.60;99.90
47754;DHT22;2038;51.728;6.674;2023-03-01T03:09:12;-1.50;99.90
47754;DHT22;2038;51.728;6.674;2023-03-01T03:16:51;-1.40;99.90
47754;DHT22;2038;51.728;6.674;2023-03-01T03:19:18;-1.40;99.90
47754;DHT22;2038;51.728;6.674;2023-03-01T03:21:44;-1.50;99.90
47754;DHT22;2038;51.728;6.674;2023-03-01T03:29:03;-1.40;99.90
47754;DHT22;2038;51.728;6.674;2023-03-01T03:33:55;-1.50;99.90
47754;DHT22;2038;51.728;6.674;2023-03-01T03:36:23;-1.20;99.90
47754;DHT22;2038;51.728;6.674;2023-03-01T03:41:17;-1.80;99.90
47754;DHT22;2038;51.728;6.674;2023-03-01T03:46:10;-1.30;99.90
47754;DHT22;2038;51.728;6.674;2023-03-01T03:48:40;-1.50;99.90
47754;DHT22;2038;51.728;6.674;2023-03-01T03:51:13;-1.60;99.90
47754;DHT22;2038;51.728;6.674;2023-03-01T03:53:42;-1.40;99.90
47754;DHT22;2038;51.728;6.674;2023-03-01T03:56:10;-1.70;99.90
47754;DHT22;2038;51.728;6.674;2023-03-01T04:01:03;-1.60;99.90
47754;DHT22;2038;51.728;6.674;2023-03-01T04:03:31;-1.60;99.90
47754;DHT22;2038;51.728;6.674;2023-03-01T04:05:59;-1.60;99.90
47754;DHT22;2038;51.728;6.674;2023-03-01T04:08:27;-1.50;99.90
47754;DHT22;2038;51.728;6.674;2023-03-01T04:11:01;-1.60;99.90
47754;DHT22;2038;51.728;6.674;2023-03-01T04:21:11;-1.70;99.90
47754;DHT22;2038;51.728;6.674;2023-03-01T04:23:38;-1.80;99.90
47754;DHT22;2038;51.728;6.674;2023-03-01T04:26:06;-1.60;99.90
47754;DHT22;2038;51.728;6.674;2023-03-01T04:28:34;-1.70;99.90
47754;DHT22;2038;51.728;6.674;2023-03-01T04:31:16;-1.70;99.90
47754;DHT22;2038;51.728;6.674;2023-03-01T04:33:54;-1.70;99.90
47754;DHT22;2038;51.728;6.674;2023-03-01T04:36:26;-1.70;99.90
47754;DHT22;2038;51.728;6.674;2023-03-01T04:38:54;-1.70;99.90
47754;DHT22;2038;51.728;6.674;2023-03-01T04:41:23;-1.70;99.90
47754;DHT22;2038;51.728;6.674;2023-03-01T04:43:50;-1.70;99.90
47754;DHT22;2038;51.728;6.674;2023-03-01T04:46:18;-1.70;99.90
47754;DHT22;2038;51.728;6.674;2023-03-01T04:48:47;-1.00;99.90
47754;DHT22;2038;51.728;6.674;2023-03-01T04:51:13;-1.80;99.90
47754;DHT22;2038;51.728;6.674;2023-03-01T04:53:41;-1.60;99.90
47754;DHT22;2038;51.728;6.674;2023-03-01T04:56:08;-1.50;99.90
47754;DHT22;2038;51.728;6.674;2023-03-01T04:58:34;-1.60;99.90
47754;DHT22;2038;51.728;6.674;2023-03-01T05:01:00;-1.60;99.90
47754;DHT22;2038;51.728;6.674;2023-03-01T05:03:26;-1.40;99.90
47754;DHT22;2038;51.728;6.674;2023-03-01T05:05:53;-1.60;99.90
47754;DHT22;2038;51.728;6.674;2023-03-01T05:08:19;-1.80;99.90
47754;DHT22;2038;51.728;6.674;2023-03-01T05:10:49;-1.90;99.90
47754;DHT22;2038;51.728;6.674;2023-03-01T05:13:18;-1.70;99.90
47754;DHT22;2038;51.728;6.674;2023-03-01T05:15:54;-1.90;99.90
47754;DHT22;2038;51.728;6.674;2023-03-01T05:18:23;-2.00;99.90
47754;DHT22;2038;51.728;6.674;2023-03-01T05:20:54;-1.90;99.90
47754;DHT22;2038;51.728;6.674;2023-03-01T05:23:24;-1.70;99.90
47754;DHT22;2038;51.728;6.674;2023-03-01T05:25:50;-1.80;99.90
47754;DHT22;2038;51.728;6.674;2023-03-01T05:28:18;-1.90;99.90
47754;DHT22;2038;51.728;6.674;2023-03-01T05:30:46;-1.70;99.90
47754;DHT22;2038;51.728;6.674;2023-03-01T05:33:12;-1.70;99.90
47754;DHT22;2038;51.728;6.674;2023-03-01T05:35:42;-1.80;99.90
47754;DHT22;2038;51.728;6.674;2023-03-01T05:38:11;-1.70;99.90
47754;DHT22;2038;51.728;6.674;2023-03-01T05:40:42;-1.80;99.90
47754;DHT22;2038;51.728;6.674;2023-03-01T05:43:12;-1.70;99.90
47754;DHT22;2038;51.728;6.674;2023-03-01T05:45:41;-1.80;99.90
47754;DHT22;2038;51.728;6.674;2023-03-01T05:48:08;-0.50;99.90
47754;DHT22;2038;51.728;6.674;2023-03-01T05:50:39;-1.70;99.90
47754;DHT22;2038;51.728;6.674;2023-03-01T05:53:11;-1.70;99.90
47754;DHT22;2038;51.728;6.674;2023-03-01T05:55:45;-1.80;99.90
47754;DHT22;2038;51.728;6.674;2023-03-01T05:58:15;-1.70;99.90
47754;DHT22;2038;51.728;6.674;2023-03-01T06:00:46;-1.70;99.90
47754;DHT22;2038;51.728;6.674;2023-03-01T06:03:15;-1.80;99.90
47754;DHT22;2038;51.728;6.674;2023-03-01T06:05:43;-1.70;99.90
47754;DHT22;2038;51.728;6.674;2023-03-01T06:08:10;-1.70;99.90
47754;DHT22;2038;51.728;6.674;2023-03-01T06:10:37;-0.80;99.90
47754;DHT22;2038;51.728;6.674;2023-03-01T06:13:04;-1.60;99.90
47754;DHT22;2038;51.728;6.674;2023-03-01T06:15:30;-1.60;99.90
47754;DHT22;2038;51.728;6.674;2023-03-01T06:17:56;-1.90;99.90
47754;DHT22;2038;51.728;6.674;2023-03-01T06:20:27;-0.30;99.90
47754;DHT22;2038;51.728;6.674;2023-03-01T06:22:54;-1.60;99.90
47754;DHT22;2038;51.728;6.674;2023-03-01T06:25:22;-1.70;99.90
47754;DHT22;2038;51.728;6.674;2023-03-01T06:27:50;-1.70;99.90
47754;DHT22;2038;51.728;6.674;2023-03-01T06:30:19;-2.00;99.90
47754;DHT22;2038;51.728;6.674;2023-03-01T06:32:47;-1.20;99.90
47754;DHT22;2038;51.728;6.674;2023-03-01T06:35:15;-1.70;99.90
47754;DHT22;2038;51.728;6.674;2023-03-01T06:37:43;-1.70;99.90
47754;DHT22;2038;51.728;6.674;2023-03-01T06:40:11;-1.80;99.90
47754;DHT22;2038;51.728;6.674;2023-03-01T06:42:41;-1.60;99.90
47754;DHT22;2038;51.728;6.674;2023-03-01T06:45:09;-1.70;99.90
47754;DHT22;2038;51.728;6.674;2023-03-01T06:47:36;-1.60;99.90
47754;DHT22;2038;51.728;6.674;2023-03-01T06:50:02;-1.70;99.90
47754;DHT22;2038;51.728;6.674;2023-03-01T06:52:29;-1.50;99.90
47754;DHT22;2038;51.728;6.674;2023-03-01T06:54:55;-1.70;99.90
47754;DHT22;2038;51.728;6.674;2023-03-01T06:57:21;-1.50;99.90
47754;DHT22;2038;51.728;6.674;2023-03-01T06:59:47;-1.60;99.90
47754;DHT22;2038;51.728;6.674;2023-03-01T07:02:14;-1.30;99.90
47754;DHT22;2038;51.728;6.674;2023-03-01T07:04:41;-0.40;99.90
47754;DHT22;2038;51.728;6.674;2023-03-01T07:07:08;-1.30;99.90
47754;DHT22;2038;51.728;6.674;2023-03-01T07:09:34;-1.40;99.90
47754;DHT22;2038;51.728;6.674;2023-03-01T07:12:00;-1.00;99.90
47754;DHT22;2038;51.728;6.674;2023-03-01T07:14:27;-1.20;99.90
47754;DHT22;2038;51.728;6.674;2023-03-01T07:16:53;-1.20;99.90
47754;DHT22;2038;51.728;6.674;2023-03-01T07:19:21;-1.00;99.90
47754;DHT22;2038;51.728;6.674;2023-03-01T07:21:47;-0.80;99.90
47754;DHT22;2038;51.728;6.674;2023-03-01T07:24:14;0.40;99.90
47754;DHT22;2038;51.728;6.674;2023-03-01T07:26:40;-0.80;99.90
47754;DHT22;2038;51.728;6.674;2023-03-01T07:29:07;-0.60;99.90
47754;DHT22;2038;51.728;6.674;2023-03-01T07:31:35;-0.40;99.90
47754;DHT22;2038;51.728;6.674;2023-03-01T07:34:02;-0.60;99.90
47754;DHT22;2038;51.728;6.674;2023-03-01T07:36:28;-0.50;99.90
47754;DHT22;2038;51.728;6.674;2023-03-01T07:38:54;0.20;99.90
47754;DHT22;2038;51.728;6.674;2023-03-01T07:41:21;0.50;99.90
47754;DHT22;2038;51.728;6.674;2023-03-01T07:43:46;-0.10;99.90
47754;DHT22;2038;51.728;6.674;2023-03-01T07:46:12;0.90;99.90
47754;DHT22;2038;51.728;6.674;2023-03-01T07:48:38;-0.10;99.90
47754;DHT22;2038;51.728;6.674;2023-03-01T07:51:06;0.50;99.90
47754;DHT22;2038;51.728;6.674;2023-03-01T07:53:33;0.20;99.90
47754;DHT22;2038;51.728;6.674;2023-03-01T07:56:12;0.20;99.90
47754;DHT22;2038;51.728;6.674;2023-03-01T07:58:43;0.70;99.90
47754;DHT22;2038;51.728;6.674;2023-03-01T08:01:12;0.70;99.90
47754;DHT22;2038;51.728;6.674;2023-03-01T08:03:41;0.60;99.90
47754;DHT22;2038;51.728;6.674;2023-03-01T08:06:12;0.90;99.90
47754;DHT22;2038;51.728;6.674;2023-03-01T08:08:41;1.40;99.90
47754;DHT22;2038;51.728;6.674;2023-03-01T08:11:11;0.80;99.90
47754;DHT22;2038;51.728;6.674;2023-03-01T08:13:38;0.90;99.90
47754;DHT22;2038;51.728;6.674;2023-03-01T08:16:12;0.90;99.90
47754;DHT22;2038;51.728;6.674;2023-03-01T08:18:40;1.10;99.90
47754;DHT22;2038;51.728;6.674;2023-03-01T08:21:10;1.20;99.90
47754;DHT22;2038;51.728;6.674;2023-03-01T08:23:39;4.00;99.90
47754;DHT22;2038;51.728;6.674;2023-03-01T08:26:11;1.40;99.90
47754;DHT22;2038;51.728;6.674;2023-03-01T08:28:44;1.40;99.90
47754;DHT22;2038;51.728;6.674;2023-03-01T08:36:33;1.70;99.90
47754;DHT22;2038;51.728;6.674;2023-03-01T08:39:04;1.80;99.90
47754;DHT22;2038;51.728;6.674;2023-03-01T08:43:57;1.90;99.90
47754;DHT22;2038;51.728;6.674;2023-03-01T08:46:32;2.30;99.90
47754;DHT22;2038;51.728;6.674;2023-03-01T08:49:04;2.30;99.90
47754;DHT22;2038;51.728;6.674;2023-03-01T08:51:37;2.10;99.90
47754;DHT22;2038;51.728;6.674;2023-03-01T08:54:04;2.20;99.90
47754;DHT22;2038;51.728;6.674;2023-03-01T08:56:35;2.30;99.90
47754;DHT22;2038;51.728;6.674;2023-03-01T08:59:00;2.70;99.90
47754;DHT22;2038;51.728;6.674;2023-03-01T09:01:26;2.50;99.90
47754;DHT22;2038;51.728;6.674;2023-03-01T09:03:52;2.50;99.90
47754;DHT22;2038;51.728;6.674;2023-03-01T09:11:17;2.70;99.90
47754;DHT22;2038;51.728;6.674;2023-03-01T09:13:47;3.00;99.90
47754;DHT22;2038;51.728;6.674;2023-03-01T09:16:17;3.60;99.90
47754;DHT22;2038;51.728;6.674;2023-03-01T09:18:49;3.00;99.90
47754;DHT22;2038;51.728;6.674;2023-03-01T09:21:21;3.00;99.90
47754;DHT22;2038;51.728;6.674;2023-03-01T09:23:49;3.80;99.90
47754;DHT22;2038;51.728;6.674;2023-03-01T09:26:20;3.20;99.90
47754;DHT22;2038;51.728;6.674;2023-03-01T09:28:55;3.20;99.90
47754;DHT22;2038;51.728;6.674;2023-03-01T09:31:23;3.20;99.90
47754;DHT22;2038;51.728;6.674;2023-03-01T09:33:52;3.40;99.90
47754;DHT22;2038;51.728;6.674;2023-03-01T09:47:24;3.80;99.90
47754;DHT22;2038;51.728;6.674;2023-03-01T09:52:54;4.00;99.90
47754;DHT22;2038;51.728;6.674;2023-03-01T09:55:41;3.90;99.90
47754;DHT22;2038;51.728;6.674;2023-03-01T09:58:48;3.90;99.90
47754;DHT22;2038;51.728;6.674;2023-03-01T10:31:45;4.30;99.90
47754;DHT22;2038;51.728;6.674;2023-03-01T10:34:27;4.40;99.90
47754;DHT22;2038;51.728;6.674;2023-03-01T10:37:12;4.50;99.90
47754;DHT22;2038;51.728;6.674;2023-03-01T10:42:39;5.30;99.90
47754;DHT22;2038;51.728;6.674;2023-03-01T10:45:35;4.70;99.90
47754;DHT22;2038;51.728;6.674;2023-03-01T10:48:21;4.70;99.90
47754;DHT22;2038;51.728;6.674;2023-03-01T10:51:06;4.80;99.90
47754;DHT22;2038;51.728;6.674;2023-03-01T10:53:41;4.80;99.90
47754;DHT22;2038;51.728;6.674;2023-03-01T10:56:14;4.80;99.90
47754;DHT22;2038;51.728;6.674;2023-03-01T10:58:59;5.00;99.90
47754;DHT22;2038;51.728;6.674;2023-03-01T11:01:33;4.90;99.90
47754;DHT22;2038;51.728;6.674;2023-03-01T11:09:24;5.10;99.90
47754;DHT22;2038;51.728;6.674;2023-03-01T11:11:55;5.20;99.90
47754;DHT22;2038;51.728;6.674;2023-03-01T11:14:35;5.20;99.90
47754;DHT22;2038;51.728;6.674;2023-03-01T11:17:15;5.10;99.90
47754;DHT22;2038;51.728;6.674;2023-03-01T11:23:03;5.10;99.90
47754;DHT22;2038;51.728;6.674;2023-03-01T11:25:37;5.10;99.90
47754;DHT22;2038;51.728;6.674;2023-03-01T11:28:13;5.20;99.90
47754;DHT22;2038;51.728;6.674;2023-03-01T11:30:57;5.20;99.90
